createdAt,value
2022-11-23T00:01:23.016Z,17.53
2022-11-23T00:03:52.198Z,17.07
2022-11-23T00:06:19.379Z,17.43
2022-11-23T00:08:45.831Z,17.37
2022-11-23T00:11:12.497Z,18.23
2022-11-23T00:13:40.661Z,17.23
2022-11-23T00:16:08.685Z,17.73
2022-11-23T00:18:35.590Z,17.20
2022-11-23T00:21:14.789Z,16.57
2022-11-23T00:23:41.250Z,17.03
2022-11-23T00:26:07.772Z,18.00
2022-11-23T00:28:37.308Z,17.63
2022-11-23T00:31:03.860Z,17.27
2022-11-23T00:33:30.259Z,17.80
2022-11-23T00:36:00.687Z,18.60
2022-11-23T00:38:27.677Z,19.73
2022-11-23T00:40:57.828Z,18.57
2022-11-23T00:43:24.266Z,17.30
2022-11-23T00:45:51.133Z,17.80
2022-11-23T00:48:17.541Z,17.17
2022-11-23T00:50:43.924Z,18.57
2022-11-23T00:53:10.343Z,18.00
2022-11-23T00:55:36.743Z,19.53
2022-11-23T00:58:03.129Z,18.17
2022-11-23T01:00:29.557Z,18.80
2022-11-23T01:02:55.979Z,19.20
2022-11-23T01:05:22.369Z,17.67
2022-11-23T01:07:48.841Z,16.83
2022-11-23T01:10:15.310Z,18.47
2022-11-23T01:12:41.716Z,19.77
2022-11-23T01:15:08.472Z,17.83
2022-11-23T01:17:34.928Z,18.67
2022-11-23T01:20:01.349Z,19.20
2022-11-23T01:22:27.840Z,16.97
2022-11-23T01:24:54.243Z,18.97
2022-11-23T01:27:20.649Z,17.87
2022-11-23T01:29:47.070Z,17.93
2022-11-23T01:32:13.480Z,21.00
2022-11-23T01:34:39.895Z,19.83
2022-11-23T01:37:06.384Z,19.17
2022-11-23T01:39:32.995Z,19.33
2022-11-23T01:41:59.646Z,17.90
2022-11-23T01:44:30.403Z,17.83
2022-11-23T01:46:58.053Z,17.33
2022-11-23T01:49:25.787Z,19.30
2022-11-23T01:51:54.682Z,18.57
2022-11-23T01:54:30.588Z,18.17
2022-11-23T01:57:00.626Z,16.93
2022-11-23T01:59:28.069Z,16.67
2022-11-23T02:01:54.491Z,17.40
2022-11-23T02:04:25.683Z,17.67
2022-11-23T02:06:52.523Z,17.33
2022-11-23T02:09:19.803Z,18.30
2022-11-23T02:11:46.229Z,17.53
2022-11-23T02:14:12.889Z,17.13
2022-11-23T02:16:39.404Z,17.37
2022-11-23T02:19:08.377Z,18.03
2022-11-23T02:21:34.791Z,17.87
2022-11-23T02:24:04.252Z,17.57
2022-11-23T02:26:32.373Z,18.33
2022-11-23T02:29:10.972Z,18.80
2022-11-23T02:31:37.422Z,17.27
2022-11-23T02:34:04.210Z,18.17
2022-11-23T02:36:36.977Z,17.53
2022-11-23T02:39:06.766Z,17.97
2022-11-23T02:41:37.819Z,16.77
2022-11-23T02:44:05.512Z,18.27
2022-11-23T02:46:31.936Z,17.73
2022-11-23T02:48:58.403Z,17.47
2022-11-23T02:51:24.930Z,17.33
2022-11-23T02:53:51.371Z,17.90
2022-11-23T02:56:17.853Z,17.80
2022-11-23T02:58:44.245Z,17.33
2022-11-23T03:01:10.739Z,17.37
2022-11-23T03:03:37.185Z,18.13
2022-11-23T03:06:03.650Z,17.60
2022-11-23T03:08:30.036Z,18.93
2022-11-23T03:10:56.532Z,19.13
2022-11-23T03:13:22.954Z,18.83
2022-11-23T03:15:49.411Z,17.60
2022-11-23T03:18:15.858Z,18.23
2022-11-23T03:20:42.259Z,18.23
2022-11-23T03:23:08.669Z,18.47
2022-11-23T03:25:35.131Z,17.97
2022-11-23T03:28:01.531Z,18.60
2022-11-23T03:30:27.958Z,19.47
2022-11-23T03:32:54.406Z,19.03
2022-11-23T03:35:20.893Z,18.73
2022-11-23T03:37:47.289Z,19.70
2022-11-23T03:40:13.838Z,18.27
2022-11-23T03:42:40.901Z,19.13
2022-11-23T03:45:07.932Z,17.70
2022-11-23T03:47:34.422Z,17.90
2022-11-23T03:50:00.836Z,18.70
2022-11-23T03:52:27.303Z,17.60
2022-11-23T03:54:53.724Z,17.60
2022-11-23T03:57:20.130Z,18.67
2022-11-23T03:59:46.525Z,17.93
2022-11-23T04:02:12.953Z,18.93
2022-11-23T04:04:39.362Z,19.30
2022-11-23T04:07:05.891Z,21.43
2022-11-23T04:09:32.617Z,18.63
2022-11-23T04:11:59.246Z,18.33
2022-11-23T04:14:25.674Z,18.47
2022-11-23T04:16:52.148Z,20.73
2022-11-23T04:19:18.549Z,19.60
2022-11-23T04:21:44.967Z,19.90
2022-11-23T04:24:11.441Z,19.00
2022-11-23T04:26:37.947Z,19.27
2022-11-23T04:29:04.442Z,20.63
2022-11-23T04:31:30.874Z,19.27
2022-11-23T04:33:57.348Z,20.50
2022-11-23T04:36:23.806Z,20.07
2022-11-23T04:38:50.623Z,19.87
2022-11-23T04:41:17.025Z,20.20
2022-11-23T04:43:43.445Z,19.67
2022-11-23T04:46:11.398Z,19.90
2022-11-23T04:48:37.834Z,20.20
2022-11-23T04:51:04.269Z,20.97
2022-11-23T04:53:30.766Z,19.33
2022-11-23T04:55:57.284Z,19.73
2022-11-23T04:58:23.744Z,19.07
2022-11-23T05:00:50.305Z,19.17
2022-11-23T05:03:16.904Z,19.50
2022-11-23T05:05:43.458Z,18.23
2022-11-23T05:08:10.266Z,18.87
2022-11-23T05:10:37.195Z,17.53
2022-11-23T05:13:03.889Z,18.67
2022-11-23T05:15:30.316Z,31.17
2022-11-23T05:18:06.878Z,20.53
2022-11-23T05:20:34.015Z,19.40
2022-11-23T05:23:00.428Z,19.43
2022-11-23T05:25:27.138Z,16.43
2022-11-23T05:27:53.582Z,18.70
2022-11-23T05:30:20.002Z,17.27
2022-11-23T05:32:46.434Z,17.43
2022-11-23T05:35:12.889Z,15.80
2022-11-23T05:37:39.300Z,16.30
2022-11-23T05:40:05.986Z,15.57
2022-11-23T05:42:32.453Z,16.13
2022-11-23T05:44:59.007Z,15.57
2022-11-23T05:47:25.470Z,15.50
2022-11-23T05:49:51.956Z,15.80
2022-11-23T05:52:18.709Z,15.67
2022-11-23T05:54:45.117Z,24.43
2022-11-23T05:57:11.620Z,15.93
2022-11-23T05:59:38.029Z,17.03
2022-11-23T06:02:04.562Z,15.17
2022-11-23T06:04:31.035Z,15.57
2022-11-23T06:07:00.959Z,15.70
2022-11-23T06:09:27.941Z,15.87
2022-11-23T06:11:54.383Z,15.70
2022-11-23T06:14:20.781Z,15.80
2022-11-23T06:16:47.482Z,14.73
2022-11-23T06:19:13.902Z,15.73
2022-11-23T06:21:40.286Z,16.67
2022-11-23T06:24:06.775Z,17.17
2022-11-23T06:26:33.251Z,17.10
2022-11-23T06:28:59.668Z,16.90
2022-11-23T06:31:26.079Z,15.73
2022-11-23T06:33:53.072Z,16.63
2022-11-23T06:36:19.725Z,16.73
2022-11-23T06:38:46.183Z,17.30
2022-11-23T06:41:12.629Z,15.90
2022-11-23T06:43:39.053Z,16.60
2022-11-23T06:46:06.819Z,17.00
2022-11-23T06:48:33.724Z,15.80
2022-11-23T06:51:00.312Z,17.17
2022-11-23T06:53:27.306Z,16.70
2022-11-23T06:55:53.838Z,16.47
2022-11-23T06:58:20.272Z,18.47
2022-11-23T07:00:46.709Z,16.47
2022-11-23T07:03:19.835Z,17.23
2022-11-23T07:05:46.437Z,19.77
2022-11-23T07:08:12.875Z,18.73
2022-11-23T07:10:41.518Z,17.10
2022-11-23T07:13:13.009Z,16.23
2022-11-23T07:15:41.060Z,17.30
2022-11-23T07:18:08.207Z,16.23
2022-11-23T07:20:34.938Z,17.10
2022-11-23T07:23:02.218Z,17.13
2022-11-23T07:25:29.276Z,19.10
2022-11-23T07:27:56.626Z,18.43
2022-11-23T07:30:29.001Z,18.13
2022-11-23T07:33:14.084Z,26.47
2022-11-23T07:35:41.084Z,18.23
2022-11-23T07:38:09.105Z,19.07
2022-11-23T07:40:38.789Z,21.03
2022-11-23T07:43:06.044Z,20.40
2022-11-23T07:45:33.278Z,18.97
2022-11-23T07:47:59.709Z,19.47
2022-11-23T07:50:26.365Z,18.20
2022-11-23T07:52:52.808Z,19.73
2022-11-23T07:55:19.227Z,19.37
2022-11-23T07:57:45.668Z,18.97
2022-11-23T08:00:12.622Z,18.97
2022-11-23T08:02:52.876Z,20.17
2022-11-23T08:05:26.756Z,20.43
2022-11-23T08:07:58.107Z,19.17
2022-11-23T08:10:24.942Z,18.07
2022-11-23T08:12:51.590Z,18.70
2022-11-23T08:15:18.357Z,18.37
2022-11-23T08:17:44.940Z,17.20
2022-11-23T08:20:11.592Z,17.57
2022-11-23T08:22:38.026Z,18.93
2022-11-23T08:25:04.605Z,19.67
2022-11-23T08:27:31.039Z,19.83
2022-11-23T08:29:57.472Z,20.10
2022-11-23T08:32:23.888Z,20.47
2022-11-23T08:34:50.340Z,19.90
2022-11-23T08:37:16.734Z,20.40
2022-11-23T08:39:43.139Z,20.00
2022-11-23T08:42:10.256Z,20.57
2022-11-23T08:44:36.794Z,20.80
2022-11-23T08:47:03.227Z,19.07
2022-11-23T08:49:29.664Z,19.80
2022-11-23T08:51:56.204Z,18.60
2022-11-23T08:54:24.279Z,19.70
2022-11-23T08:56:51.353Z,19.27
2022-11-23T08:59:18.667Z,19.97
2022-11-23T09:01:45.409Z,19.90
2022-11-23T09:04:16.377Z,20.40
2022-11-23T09:06:45.663Z,20.77
2022-11-23T09:09:12.136Z,20.87
2022-11-23T09:11:38.606Z,20.57
2022-11-23T09:14:05.053Z,21.07
2022-11-23T09:16:34.061Z,21.17
2022-11-23T09:19:00.806Z,21.30
2022-11-23T09:21:33.471Z,22.00
2022-11-23T09:23:59.906Z,21.73
2022-11-23T09:26:26.954Z,21.97
2022-11-23T09:28:53.414Z,23.97
2022-11-23T09:31:19.879Z,23.50
2022-11-23T09:33:46.337Z,21.50
2022-11-23T09:36:12.824Z,22.70
2022-11-23T09:38:55.766Z,21.13
2022-11-23T09:41:26.106Z,21.23
2022-11-23T09:44:11.493Z,21.93
2022-11-23T09:46:44.985Z,20.27
2022-11-23T09:49:20.303Z,20.90
2022-11-23T09:51:48.121Z,22.13
2022-11-23T09:54:30.528Z,22.10
2022-11-23T09:57:01.662Z,21.03
2022-11-23T09:59:32.246Z,19.53
2022-11-23T10:01:58.970Z,22.10
2022-11-23T10:04:25.686Z,21.40
2022-11-23T10:06:57.675Z,21.97
2022-11-23T10:09:24.818Z,22.53
2022-11-23T10:12:09.824Z,21.37
2022-11-23T10:14:36.245Z,19.63
2022-11-23T10:17:11.867Z,19.07
2022-11-23T10:19:56.728Z,18.63
2022-11-23T10:22:38.501Z,19.20
2022-11-23T10:25:10.528Z,19.07
2022-11-23T10:27:36.980Z,19.67
2022-11-23T10:30:03.725Z,19.80
2022-11-23T10:32:32.824Z,19.60
2022-11-23T10:35:17.403Z,19.13
2022-11-23T10:37:44.176Z,19.37
2022-11-23T10:40:31.296Z,19.83
2022-11-23T10:42:59.493Z,18.97
2022-11-23T10:45:27.572Z,21.80
2022-11-23T10:48:00.960Z,19.87
2022-11-23T10:50:37.576Z,19.53
2022-11-23T10:53:10.182Z,20.77
2022-11-23T10:55:50.338Z,19.93
2022-11-23T10:58:27.304Z,21.07
2022-11-23T11:01:01.238Z,21.73
2022-11-23T11:03:30.408Z,21.10
2022-11-23T11:06:12.868Z,20.87
2022-11-23T11:08:56.033Z,21.27
2022-11-23T11:11:46.001Z,22.73
2022-11-23T11:14:17.471Z,22.67
2022-11-23T11:17:02.016Z,23.07
2022-11-23T11:19:28.499Z,22.00
2022-11-23T11:21:55.468Z,23.83
2022-11-23T11:24:33.521Z,23.53
2022-11-23T11:27:01.475Z,23.43
2022-11-23T11:29:47.532Z,25.13
2022-11-23T11:32:34.234Z,22.93
2022-11-23T11:35:08.303Z,22.13
2022-11-23T11:37:39.381Z,22.67
2022-11-23T11:40:28.948Z,22.17
2022-11-23T11:42:55.349Z,23.57
2022-11-23T11:45:59.760Z,21.57
2022-11-23T11:48:32.786Z,23.50
2022-11-23T11:51:11.829Z,21.50
2022-11-23T11:53:48.983Z,20.10
2022-11-23T11:56:15.730Z,20.37
2022-11-23T11:58:46.119Z,26.57
2022-11-23T12:01:31.056Z,21.43
2022-11-23T12:04:00.687Z,20.63
2022-11-23T12:06:32.317Z,22.27
2022-11-23T12:08:58.809Z,20.97
2022-11-23T12:11:25.336Z,20.07
2022-11-23T12:13:53.896Z,20.70
2022-11-23T12:16:26.323Z,19.93
2022-11-23T12:19:11.217Z,20.20
2022-11-23T12:21:37.700Z,19.50
2022-11-23T12:24:12.768Z,19.40
2022-11-23T12:26:51.968Z,20.10
2022-11-23T12:29:22.427Z,20.83
2022-11-23T12:32:12.316Z,19.87
2022-11-23T12:34:38.772Z,21.40
2022-11-23T12:37:05.215Z,20.13
2022-11-23T12:39:41.687Z,20.93
2022-11-23T12:42:26.916Z,22.63
2022-11-23T12:44:53.394Z,21.93
2022-11-23T12:47:38.141Z,21.70
2022-11-23T12:50:10.475Z,20.10
2022-11-23T12:52:55.342Z,20.63
2022-11-23T12:55:39.506Z,21.17
2022-11-23T12:58:10.281Z,21.90
2022-11-23T13:00:39.772Z,21.47
2022-11-23T13:03:12.279Z,22.37
2022-11-23T13:05:38.682Z,21.80
2022-11-23T13:08:18.606Z,21.17
2022-11-23T13:11:04.433Z,22.27
2022-11-23T13:13:37.181Z,21.27
2022-11-23T13:16:03.966Z,20.73
2022-11-23T13:18:49.209Z,19.10
2022-11-23T13:21:15.730Z,19.03
2022-11-23T13:23:42.335Z,19.73
2022-11-23T13:26:12.761Z,20.40
2022-11-23T13:28:39.249Z,19.63
2022-11-23T13:31:23.985Z,19.50
2022-11-23T13:33:51.831Z,18.50
2022-11-23T13:36:56.489Z,18.50
2022-11-23T13:39:35.111Z,18.63
2022-11-23T13:42:01.944Z,17.97
2022-11-23T13:44:30.359Z,19.60
2022-11-23T13:47:12.340Z,20.50
2022-11-23T13:49:43.285Z,19.87
2022-11-23T13:52:24.456Z,18.90
2022-11-23T13:54:54.880Z,20.03
2022-11-23T13:57:21.797Z,18.60
2022-11-23T13:59:48.369Z,19.67
2022-11-23T14:02:14.879Z,22.10
2022-11-23T14:04:45.496Z,21.80
2022-11-23T14:07:15.244Z,21.17
2022-11-23T14:09:57.094Z,20.80
2022-11-23T14:12:29.536Z,20.23
2022-11-23T14:14:59.099Z,20.07
2022-11-23T14:17:34.586Z,21.33
2022-11-23T14:20:13.192Z,20.23
2022-11-23T14:22:54.912Z,21.23
2022-11-23T14:25:40.433Z,20.83
2022-11-23T14:28:09.657Z,20.40
2022-11-23T14:30:41.141Z,20.30
2022-11-23T14:33:23.037Z,20.33
2022-11-23T14:35:52.488Z,36.37
2022-11-23T14:38:34.564Z,23.53
2022-11-23T14:41:08.398Z,20.43
2022-11-23T14:43:36.891Z,22.13
2022-11-23T14:46:06.886Z,24.83
2022-11-23T14:48:34.867Z,20.97
2022-11-23T14:51:01.469Z,20.03
2022-11-23T14:53:29.811Z,18.87
2022-11-23T14:56:34.990Z,18.33
2022-11-23T14:59:03.387Z,18.17
2022-11-23T15:01:30.103Z,18.10
2022-11-23T15:03:58.006Z,17.70
2022-11-23T15:06:30.948Z,18.53
2022-11-23T15:09:02.665Z,17.47
2022-11-23T15:11:30.816Z,17.90
2022-11-23T15:14:03.367Z,18.43
2022-11-23T15:16:38.576Z,17.23
2022-11-23T15:19:26.664Z,17.90
2022-11-23T15:21:53.292Z,18.77
2022-11-23T15:24:28.301Z,19.50
2022-11-23T15:27:09.512Z,18.33
2022-11-23T15:29:39.208Z,20.40
2022-11-23T15:32:34.936Z,19.73
2022-11-23T15:35:04.478Z,18.97
2022-11-23T15:37:31.480Z,18.33
2022-11-23T15:39:58.421Z,19.83
2022-11-23T15:42:25.993Z,18.37
2022-11-23T15:44:54.238Z,19.33
2022-11-23T15:47:39.448Z,18.43
2022-11-23T15:50:09.212Z,18.00
2022-11-23T15:52:37.836Z,18.20
2022-11-23T15:55:11.607Z,18.90
2022-11-23T15:57:39.680Z,18.77
2022-11-23T16:00:07.629Z,18.23
2022-11-23T16:02:35.971Z,18.20
2022-11-23T16:05:12.568Z,18.30
2022-11-23T16:07:53.470Z,19.37
2022-11-23T16:10:24.760Z,19.37
2022-11-23T16:12:59.014Z,18.87
2022-11-23T16:18:39.523Z,19.73
2022-11-23T16:21:06.183Z,18.83
2022-11-23T16:23:35.436Z,20.63
2022-11-23T16:26:06.299Z,21.00
2022-11-23T16:28:34.735Z,20.43
2022-11-23T16:31:01.569Z,21.57
2022-11-23T16:33:28.794Z,18.83
2022-11-23T16:35:55.514Z,19.80
2022-11-23T16:38:22.899Z,20.20
2022-11-23T16:40:49.882Z,20.10
2022-11-23T16:43:20.589Z,19.20
2022-11-23T16:45:49.254Z,18.90
2022-11-23T16:48:36.845Z,19.63
2022-11-23T16:51:03.454Z,18.30
2022-11-23T16:53:47.092Z,18.90
2022-11-23T16:56:19.983Z,23.80
2022-11-23T16:58:47.107Z,20.33
2022-11-23T17:01:18.859Z,19.83
2022-11-23T17:03:45.617Z,19.57
2022-11-23T17:06:14.381Z,19.83
2022-11-23T17:08:41.702Z,23.07
2022-11-23T17:11:12.464Z,25.00
2022-11-23T17:13:39.044Z,20.67
2022-11-23T17:16:05.660Z,20.07
2022-11-23T17:18:32.161Z,18.83
2022-11-23T17:20:58.676Z,20.77
2022-11-23T17:23:25.322Z,19.93
2022-11-23T17:25:51.883Z,18.83
2022-11-23T17:28:21.424Z,19.53
2022-11-23T17:30:48.172Z,18.60
2022-11-23T17:33:14.778Z,19.20
2022-11-23T17:35:41.357Z,19.50
2022-11-23T17:38:13.627Z,19.53
2022-11-23T17:40:40.323Z,20.37
2022-11-23T17:43:06.830Z,18.70
2022-11-23T17:45:33.907Z,20.67
2022-11-23T17:48:03.318Z,20.57
2022-11-23T17:50:30.407Z,19.53
2022-11-23T17:52:57.423Z,19.27
2022-11-23T17:55:23.916Z,19.50
2022-11-23T17:57:50.522Z,22.40
2022-11-23T18:00:21.768Z,21.27
2022-11-23T18:02:48.709Z,21.03
2022-11-23T18:05:21.125Z,20.27
2022-11-23T18:07:48.997Z,19.03
2022-11-23T18:10:15.905Z,19.53
2022-11-23T18:12:44.627Z,19.87
2022-11-23T18:15:12.014Z,19.87
2022-11-23T18:17:38.692Z,21.67
2022-11-23T18:20:25.474Z,21.33
2022-11-23T18:22:52.107Z,21.87
2022-11-23T18:25:18.819Z,23.20
2022-11-23T18:27:45.517Z,21.47
2022-11-23T18:30:13.711Z,21.10
2022-11-23T18:32:40.551Z,22.03
2022-11-23T18:35:07.672Z,26.23
2022-11-23T18:37:34.315Z,27.43
2022-11-23T18:40:00.957Z,23.40
2022-11-23T18:42:27.551Z,21.40
2022-11-23T18:44:54.116Z,22.80
2022-11-23T18:47:20.882Z,18.50
2022-11-23T18:49:47.538Z,16.83
2022-11-23T18:52:14.185Z,17.93
2022-11-23T18:54:40.743Z,18.67
2022-11-23T18:57:08.222Z,24.37
2022-11-23T18:59:56.941Z,23.63
2022-11-23T19:02:21.577Z,24.07
2022-11-23T19:04:48.580Z,26.20
2022-11-23T19:07:15.463Z,25.73
2022-11-23T19:09:45.222Z,27.17
2022-11-23T19:12:31.911Z,26.17
2022-11-23T19:14:58.666Z,25.27
2022-11-23T19:17:25.543Z,24.10
2022-11-23T19:19:52.364Z,25.13
2022-11-23T19:22:20.359Z,24.50
2022-11-23T19:24:47.413Z,24.17
2022-11-23T19:27:14.164Z,24.43
2022-11-23T19:29:40.679Z,25.83
2022-11-23T19:32:07.387Z,25.57
2022-11-23T19:34:35.034Z,26.10
2022-11-23T19:37:02.036Z,25.23
2022-11-23T19:39:28.758Z,25.40
2022-11-23T19:41:57.604Z,24.07
2022-11-23T19:44:24.609Z,23.33
2022-11-23T19:46:51.524Z,23.07
2022-11-23T19:49:18.603Z,24.77
2022-11-23T19:51:51.334Z,24.57
2022-11-23T19:54:19.505Z,24.57
2022-11-23T19:56:46.303Z,23.53
2022-11-23T19:59:13.498Z,23.77
2022-11-23T20:01:40.437Z,23.23
2022-11-23T20:04:09.647Z,23.97
2022-11-23T20:06:38.143Z,25.33
2022-11-23T20:09:09.738Z,24.80
2022-11-23T20:11:36.961Z,22.83
2022-11-23T20:14:04.225Z,21.10
2022-11-23T20:16:33.729Z,21.97
2022-11-23T20:19:01.586Z,20.23
2022-11-23T20:21:29.050Z,20.37
2022-11-23T20:24:04.325Z,19.27
2022-11-23T20:26:31.615Z,19.13
2022-11-23T20:28:58.620Z,19.53
2022-11-23T20:31:26.632Z,20.13
2022-11-23T20:33:54.054Z,19.40
2022-11-23T20:36:22.257Z,19.37
2022-11-23T20:38:49.168Z,20.23
2022-11-23T20:41:17.360Z,21.83
2022-11-23T20:43:45.357Z,21.87
2022-11-23T20:46:12.250Z,23.87
2022-11-23T20:48:40.663Z,22.07
2022-11-23T20:51:10.767Z,23.13
2022-11-23T20:53:37.637Z,21.10
2022-11-23T20:56:05.191Z,17.37
2022-11-23T20:58:32.245Z,18.57
2022-11-23T21:01:05.639Z,16.20
2022-11-23T21:03:33.284Z,16.80
2022-11-23T21:06:07.161Z,17.40
2022-11-23T21:08:35.010Z,17.67
2022-11-23T21:11:29.686Z,16.93
2022-11-23T21:14:13.900Z,15.90
2022-11-23T21:17:14.244Z,16.07
2022-11-23T21:19:43.770Z,16.90
2022-11-23T21:22:11.626Z,18.13
2022-11-23T21:24:38.369Z,18.03
2022-11-23T21:27:05.698Z,17.00
2022-11-23T21:29:32.644Z,16.50
2022-11-23T21:32:01.519Z,17.20
2022-11-23T21:34:28.923Z,17.77
2022-11-23T21:36:56.202Z,17.77
2022-11-23T21:39:23.149Z,16.93
2022-11-23T21:41:50.550Z,16.70
2022-11-23T21:44:17.530Z,15.70
2022-11-23T21:46:44.172Z,14.87
2022-11-23T21:49:11.136Z,15.90
2022-11-23T21:51:38.218Z,15.80
2022-11-23T21:54:06.214Z,16.00
2022-11-23T21:56:32.815Z,14.27
2022-11-23T21:58:59.468Z,15.57
2022-11-23T22:01:26.168Z,16.03
2022-11-23T22:03:54.020Z,16.40
2022-11-23T22:06:21.046Z,16.53
2022-11-23T22:08:48.771Z,17.00
2022-11-23T22:11:22.530Z,16.10
2022-11-23T22:13:52.589Z,16.77
2022-11-23T22:16:20.585Z,17.00
2022-11-23T22:18:52.651Z,16.90
2022-11-23T22:21:22.642Z,17.10
2022-11-23T22:23:49.271Z,19.03
2022-11-23T22:26:16.803Z,17.13
2022-11-23T22:28:44.859Z,17.10
2022-11-23T22:31:12.552Z,16.20
2022-11-23T22:33:39.368Z,16.07
2022-11-23T22:36:05.926Z,15.63
2022-11-23T22:38:32.428Z,16.13
2022-11-23T22:40:59.695Z,17.10
2022-11-23T22:43:26.609Z,18.10
2022-11-23T22:45:53.467Z,18.03
2022-11-23T22:48:20.135Z,18.30
2022-11-23T22:51:01.394Z,17.63
2022-11-23T22:53:28.357Z,17.67
2022-11-23T22:55:59.028Z,18.97
2022-11-23T22:58:25.535Z,18.57
2022-11-23T23:00:52.008Z,18.03
2022-11-23T23:03:18.617Z,17.53
2022-11-23T23:05:53.614Z,18.50
2022-11-23T23:08:20.088Z,17.67
2022-11-23T23:10:46.570Z,18.37
2022-11-23T23:13:13.112Z,17.00
2022-11-23T23:15:39.909Z,17.30
2022-11-23T23:18:07.266Z,16.53
2022-11-23T23:20:37.408Z,17.53
2022-11-23T23:23:04.298Z,17.33
2022-11-23T23:25:31.094Z,17.23
2022-11-23T23:27:58.221Z,17.23
2022-11-23T23:30:24.900Z,18.90
2022-11-23T23:32:53.528Z,17.87
2022-11-23T23:35:20.571Z,17.93
2022-11-23T23:37:50.947Z,17.17
2022-11-23T23:40:17.686Z,17.77
2022-11-23T23:42:44.207Z,17.13
2022-11-23T23:45:10.710Z,18.10
2022-11-23T23:47:37.952Z,17.23
2022-11-23T23:50:04.789Z,16.20
2022-11-23T23:52:31.289Z,17.23
2022-11-23T23:54:57.761Z,16.20
2022-11-23T23:57:24.287Z,16.50
2022-11-23T23:59:50.764Z,15.53
